createdAt,value
2022-09-01T00:00:07.832Z,2.40
2022-09-01T00:01:07.672Z,2.00
2022-09-01T00:02:07.673Z,1.80
2022-09-01T00:03:07.729Z,2.70
2022-09-01T00:04:07.700Z,2.70
2022-09-01T00:05:08.591Z,3.10
2022-09-01T00:06:07.678Z,3.50
2022-09-01T00:07:07.581Z,3.20
2022-09-01T00:08:07.677Z,2.10
2022-09-01T00:09:07.687Z,3.20
2022-09-01T00:10:08.020Z,2.70
2022-09-01T00:11:07.511Z,2.60
2022-09-01T00:12:07.506Z,2.40
2022-09-01T00:13:07.617Z,2.30
2022-09-01T00:14:07.538Z,1.70
2022-09-01T00:15:09.567Z,3.00
2022-09-01T00:16:07.661Z,1.70
2022-09-01T00:17:07.468Z,3.10
2022-09-01T00:18:07.449Z,2.40
2022-09-01T00:19:07.533Z,3.40
2022-09-01T00:20:07.467Z,2.90
2022-09-01T00:21:07.446Z,3.20
2022-09-01T00:22:07.481Z,2.20
2022-09-01T00:23:07.388Z,2.20
2022-09-01T00:24:07.400Z,2.50
2022-09-01T00:25:07.399Z,3.30
2022-09-01T00:26:07.495Z,2.90
2022-09-01T00:27:07.313Z,3.10
2022-09-01T00:28:07.329Z,2.90
2022-09-01T00:29:07.318Z,2.50
2022-09-01T00:30:07.457Z,2.50
2022-09-01T00:31:07.463Z,3.20
2022-09-01T00:32:07.471Z,3.30
2022-09-01T00:33:07.375Z,2.70
2022-09-01T00:34:07.367Z,3.70
2022-09-01T00:35:07.275Z,3.80
2022-09-01T00:36:07.398Z,2.40
2022-09-01T00:37:07.816Z,2.00
2022-09-01T00:38:07.480Z,4.50
2022-09-01T00:39:07.486Z,4.80
2022-09-01T00:40:07.338Z,3.10
2022-09-01T00:41:07.639Z,3.50
2022-09-01T00:42:07.238Z,4.10
2022-09-01T00:43:07.218Z,4.20
2022-09-01T00:44:07.330Z,3.70
2022-09-01T00:45:07.414Z,3.50
2022-09-01T00:46:07.605Z,4.60
2022-09-01T00:47:07.057Z,4.90
2022-09-01T00:48:07.060Z,3.50
2022-09-01T00:49:07.268Z,4.00
2022-09-01T00:50:07.049Z,4.00
2022-09-01T00:51:07.063Z,4.00
2022-09-01T00:52:07.092Z,6.00
2022-09-01T00:53:07.079Z,2.60
2022-09-01T00:54:06.987Z,6.40
2022-09-01T00:55:06.976Z,4.10
2022-09-01T00:56:06.899Z,4.80
2022-09-01T00:57:06.999Z,7.30
2022-09-01T00:58:06.919Z,3.40
2022-09-01T00:59:07.829Z,4.30
2022-09-01T01:00:06.849Z,5.20
2022-09-01T01:01:06.965Z,4.10
2022-09-01T01:02:06.877Z,6.80
2022-09-01T01:03:06.949Z,6.80
2022-09-01T01:04:06.948Z,6.70
2022-09-01T01:05:06.864Z,5.00
2022-09-01T01:06:06.870Z,4.00
2022-09-01T01:07:06.861Z,5.70
2022-09-01T01:08:07.211Z,7.50
2022-09-01T01:09:06.873Z,5.30
2022-09-01T01:10:06.783Z,4.70
2022-09-01T01:11:06.807Z,4.80
2022-09-01T01:12:06.802Z,4.80
2022-09-01T01:13:06.944Z,5.20
2022-09-01T01:14:06.722Z,3.90
2022-09-01T01:15:06.644Z,4.30
2022-09-01T01:16:06.734Z,8.80
2022-09-01T01:17:06.798Z,5.10
2022-09-01T01:18:06.745Z,3.60
2022-09-01T01:19:06.655Z,4.40
2022-09-01T01:20:06.638Z,5.30
2022-09-01T01:21:06.665Z,4.80
2022-09-01T01:22:06.569Z,2.80
2022-09-01T01:23:06.674Z,4.40
2022-09-01T01:24:06.665Z,6.20
2022-09-01T01:25:06.693Z,4.50
2022-09-01T01:26:06.717Z,5.70
2022-09-01T01:27:06.604Z,4.10
2022-09-01T01:28:06.650Z,4.70
2022-09-01T01:29:06.632Z,2.90
2022-09-01T01:30:06.534Z,7.00
2022-09-01T01:31:06.841Z,3.40
2022-09-01T01:32:06.652Z,5.40
2022-09-01T01:33:06.471Z,4.20
2022-09-01T01:34:06.771Z,4.10
2022-09-01T01:35:06.759Z,4.00
2022-09-01T01:36:06.492Z,4.30
2022-09-01T01:37:06.564Z,2.90
2022-09-01T01:38:06.685Z,4.70
2022-09-01T01:39:06.295Z,5.30
2022-09-01T01:40:06.467Z,4.90
2022-09-01T01:41:06.375Z,5.80
2022-09-01T01:42:06.432Z,6.40
2022-09-01T01:43:06.314Z,4.30
2022-09-01T01:44:06.319Z,7.50
2022-09-01T01:45:06.219Z,6.10
2022-09-01T01:46:06.280Z,6.40
2022-09-01T01:47:06.560Z,6.50
2022-09-01T01:48:06.269Z,2.70
2022-09-01T01:49:06.244Z,6.20
2022-09-01T01:50:06.152Z,9.50
2022-09-01T01:51:06.273Z,3.20
2022-09-01T01:52:08.069Z,6.60
2022-09-01T01:53:11.054Z,5.00
2022-09-01T01:54:07.200Z,5.50
2022-09-01T01:55:06.136Z,8.50
2022-09-01T01:56:06.096Z,4.70
2022-09-01T01:57:06.194Z,5.90
2022-09-01T01:58:05.993Z,6.20
2022-09-01T01:59:08.161Z,6.00
2022-09-01T02:00:06.040Z,7.60
2022-09-01T02:01:06.061Z,5.50
2022-09-01T02:02:06.106Z,6.80
2022-09-01T02:03:06.032Z,5.10
2022-09-01T02:04:06.046Z,7.90
2022-09-01T02:05:05.956Z,7.60
2022-09-01T02:06:05.974Z,5.00
2022-09-01T02:07:05.961Z,5.20
2022-09-01T02:08:07.019Z,7.70
2022-09-01T02:09:05.991Z,7.00
2022-09-01T02:10:06.008Z,7.50
2022-09-01T02:11:05.894Z,5.80
2022-09-01T02:12:05.916Z,4.50
2022-09-01T02:13:05.912Z,8.60
2022-09-01T02:14:05.936Z,5.50
2022-09-01T02:15:05.948Z,7.50
2022-09-01T02:16:05.838Z,6.40
2022-09-01T02:17:05.898Z,5.70
2022-09-01T02:18:05.860Z,9.00
2022-09-01T02:19:05.859Z,4.30
2022-09-01T02:20:06.064Z,10.40
2022-09-01T02:21:05.781Z,5.60
2022-09-01T02:22:05.767Z,6.70
2022-09-01T02:23:05.804Z,5.90
2022-09-01T02:24:05.883Z,5.90
2022-09-01T02:25:05.690Z,8.20
2022-09-01T02:26:16.161Z,5.20
2022-09-01T02:27:06.846Z,10.80
2022-09-01T02:28:05.807Z,6.60
2022-09-01T02:29:05.709Z,6.10
2022-09-01T02:30:05.933Z,8.90
2022-09-01T02:31:05.803Z,6.60
2022-09-01T02:32:05.632Z,5.90
2022-09-01T02:33:05.634Z,6.10
2022-09-01T02:34:05.650Z,5.80
2022-09-01T02:35:05.655Z,5.80
2022-09-01T02:36:05.585Z,6.50
2022-09-01T02:37:05.561Z,9.80
2022-09-01T02:38:05.559Z,4.70
2022-09-01T02:39:05.495Z,7.50
2022-09-01T02:40:05.703Z,14.10
2022-09-01T02:41:05.497Z,7.70
2022-09-01T02:42:05.505Z,8.40
2022-09-01T02:43:05.423Z,10.70
2022-09-01T02:44:05.434Z,7.40
2022-09-01T02:45:05.415Z,9.50
2022-09-01T02:46:05.558Z,7.50
2022-09-01T02:47:05.548Z,9.00
2022-09-01T02:48:05.436Z,4.30
2022-09-01T02:49:05.428Z,10.40
2022-09-01T02:50:05.470Z,7.00
2022-09-01T02:51:05.479Z,4.80
2022-09-01T02:52:05.461Z,18.90
2022-09-01T02:53:05.604Z,12.40
2022-09-01T02:54:05.468Z,15.70
2022-09-01T02:55:05.518Z,9.70
2022-09-01T02:56:05.900Z,15.40
2022-09-01T02:57:05.421Z,9.00
2022-09-01T02:58:05.320Z,11.30
2022-09-01T02:59:05.529Z,7.50
2022-09-01T03:00:05.407Z,3.90
2022-09-01T03:01:05.383Z,14.80
2022-09-01T03:02:05.233Z,3.60
2022-09-01T03:03:05.247Z,10.00
2022-09-01T03:04:05.254Z,7.20
2022-09-01T03:05:05.270Z,17.40
2022-09-01T03:06:05.134Z,8.20
2022-09-01T03:07:05.358Z,5.20
2022-09-01T03:08:05.297Z,8.20
2022-09-01T03:09:05.100Z,10.90
2022-09-01T03:10:05.185Z,10.40
2022-09-01T03:11:06.893Z,7.10
2022-09-01T03:12:05.077Z,6.60
2022-09-01T03:13:05.007Z,6.40
2022-09-01T03:14:05.008Z,9.00
2022-09-01T03:15:05.031Z,7.40
2022-09-01T03:16:05.065Z,6.70
2022-09-01T03:17:05.127Z,6.60
2022-09-01T03:18:05.033Z,10.80
2022-09-01T03:19:05.168Z,8.90
2022-09-01T03:20:05.059Z,9.30
2022-09-01T03:21:05.365Z,14.70
2022-09-01T03:22:05.068Z,8.80
2022-09-01T03:23:05.065Z,11.50
2022-09-01T03:24:04.969Z,6.00
2022-09-01T03:25:05.071Z,6.50
2022-09-01T03:26:05.082Z,10.70
2022-09-01T03:27:04.910Z,10.30
2022-09-01T03:28:04.890Z,5.30
2022-09-01T03:29:04.993Z,8.30
2022-09-01T03:30:04.810Z,8.50
2022-09-01T03:31:04.930Z,7.00
2022-09-01T03:32:05.057Z,8.30
2022-09-01T03:33:04.832Z,6.60
2022-09-01T03:34:04.852Z,10.30
2022-09-01T03:35:04.832Z,7.70
2022-09-01T03:36:04.844Z,7.80
2022-09-01T03:37:05.764Z,9.40
2022-09-01T03:38:04.692Z,7.20
2022-09-01T03:39:04.765Z,9.30
2022-09-01T03:40:04.929Z,5.10
2022-09-01T03:41:04.695Z,9.70
2022-09-01T03:42:05.803Z,10.50
2022-09-01T03:43:04.606Z,12.50
2022-09-01T03:44:04.625Z,7.00
2022-09-01T03:45:04.697Z,14.30
2022-09-01T03:46:04.640Z,8.20
2022-09-01T03:47:04.646Z,7.90
2022-09-01T03:48:04.543Z,11.70
2022-09-01T03:49:04.956Z,14.50
2022-09-01T03:50:04.676Z,14.00
2022-09-01T03:51:04.574Z,6.90
2022-09-01T03:52:04.544Z,11.10
2022-09-01T03:53:04.481Z,7.80
2022-09-01T03:54:05.299Z,10.50
2022-09-01T03:55:04.673Z,6.80
2022-09-01T03:56:04.481Z,7.10
2022-09-01T03:57:04.484Z,11.10
2022-09-01T03:58:04.404Z,8.50
2022-09-01T03:59:04.399Z,12.10
2022-09-01T04:00:04.494Z,12.50
2022-09-01T04:01:04.478Z,6.50
2022-09-01T04:02:04.590Z,8.30
2022-09-01T04:03:04.373Z,7.70
2022-09-01T04:04:04.649Z,7.70
2022-09-01T04:05:08.183Z,8.90
2022-09-01T04:06:04.365Z,10.70
2022-09-01T04:07:04.285Z,9.00
2022-09-01T04:08:04.267Z,17.80
2022-09-01T04:09:04.359Z,14.40
2022-09-01T04:10:04.280Z,4.50
2022-09-01T04:11:04.274Z,9.60
2022-09-01T04:12:04.200Z,6.90
2022-09-01T04:13:05.144Z,7.90
2022-09-01T04:14:04.221Z,15.20
2022-09-01T04:15:04.213Z,8.40
2022-09-01T04:16:04.374Z,7.10
2022-09-01T04:17:04.228Z,15.30
2022-09-01T04:18:04.318Z,7.80
2022-09-01T04:19:04.125Z,10.50
2022-09-01T04:20:04.133Z,13.00
2022-09-01T04:21:04.237Z,7.50
2022-09-01T04:22:04.182Z,15.90
2022-09-01T04:23:04.151Z,12.50
2022-09-01T04:24:04.359Z,12.00
2022-09-01T04:25:04.083Z,15.90
2022-09-01T04:26:04.063Z,16.20
2022-09-01T04:27:03.995Z,9.90
2022-09-01T04:28:04.000Z,13.30
2022-09-01T04:29:04.253Z,11.50
2022-09-01T04:30:03.913Z,8.80
2022-09-01T04:31:04.100Z,13.00
2022-09-01T04:32:04.196Z,12.40
2022-09-01T04:33:03.933Z,22.00
2022-09-01T04:34:04.125Z,18.80
2022-09-01T04:35:03.939Z,20.60
2022-09-01T04:36:03.850Z,15.60
2022-09-01T04:37:03.972Z,22.40
2022-09-01T04:38:03.864Z,19.40
2022-09-01T04:39:03.976Z,18.20
2022-09-01T04:40:03.965Z,17.20
2022-09-01T04:41:03.777Z,20.60
2022-09-01T04:42:03.784Z,18.10
2022-09-01T04:43:03.909Z,10.10
2022-09-01T04:44:03.796Z,20.70
2022-09-01T04:45:10.247Z,11.10
2022-09-01T04:46:04.772Z,19.40
2022-09-01T04:47:03.829Z,18.30
2022-09-01T04:48:04.036Z,22.30
2022-09-01T04:49:03.718Z,22.70
2022-09-01T04:50:03.744Z,12.90
2022-09-01T04:51:03.646Z,18.50
2022-09-01T04:52:03.783Z,16.30
2022-09-01T04:53:03.746Z,18.90
2022-09-01T04:54:03.781Z,9.90
2022-09-01T04:55:03.580Z,20.20
2022-09-01T04:56:03.682Z,22.60
2022-09-01T04:57:03.682Z,15.40
2022-09-01T04:58:08.318Z,13.80
2022-09-01T04:59:04.534Z,15.40
2022-09-01T05:00:03.633Z,18.00
2022-09-01T05:01:03.617Z,13.20
2022-09-01T05:02:03.633Z,15.20
2022-09-01T05:03:03.929Z,18.50
2022-09-01T05:04:04.158Z,10.90
2022-09-01T05:05:03.571Z,14.50
2022-09-01T05:06:03.537Z,14.70
2022-09-01T05:07:03.457Z,19.80
2022-09-01T05:08:03.484Z,17.90
2022-09-01T05:09:03.599Z,12.70
2022-09-01T05:10:03.482Z,14.80
2022-09-01T05:11:03.625Z,22.90
2022-09-01T05:12:03.504Z,13.00
2022-09-01T05:13:03.308Z,8.40
2022-09-01T05:14:03.389Z,11.50
2022-09-01T05:15:03.334Z,15.70
2022-09-01T05:16:03.506Z,12.60
2022-09-01T05:17:03.623Z,9.60
2022-09-01T05:18:03.342Z,12.90
2022-09-01T05:19:03.430Z,13.70
2022-09-01T05:20:03.547Z,15.80
2022-09-01T05:21:03.334Z,8.70
2022-09-01T05:22:03.354Z,17.10
2022-09-01T05:23:03.375Z,13.50
2022-09-01T05:24:03.358Z,14.10
2022-09-01T05:25:03.284Z,12.40
2022-09-01T05:26:03.369Z,14.00
2022-09-01T05:27:03.301Z,15.20
2022-09-01T05:28:03.201Z,14.60
2022-09-01T05:29:03.229Z,15.40
2022-09-01T05:30:03.330Z,16.20
2022-09-01T05:31:03.130Z,7.80
2022-09-01T05:32:03.332Z,18.10
2022-09-01T05:33:03.213Z,17.60
2022-09-01T05:34:03.133Z,11.80
2022-09-01T05:35:03.144Z,10.40
2022-09-01T05:36:03.176Z,11.30
2022-09-01T05:37:03.072Z,9.80
2022-09-01T05:38:03.169Z,7.40
2022-09-01T05:39:03.092Z,6.40
2022-09-01T05:40:03.128Z,16.00
2022-09-01T05:41:02.986Z,9.40
2022-09-01T05:42:03.285Z,9.60
2022-09-01T05:43:03.099Z,13.10
2022-09-01T05:44:03.002Z,17.70
2022-09-01T05:45:03.121Z,29.80
2022-09-01T05:46:06.865Z,5.30
2022-09-01T05:47:03.062Z,33.80
2022-09-01T05:48:02.932Z,12.10
2022-09-01T05:49:03.260Z,16.60
2022-09-01T05:50:02.960Z,9.30
2022-09-01T05:51:03.045Z,5.30
2022-09-01T05:52:02.884Z,6.90
2022-09-01T05:53:02.977Z,9.10
2022-09-01T05:54:02.945Z,15.10
2022-09-01T05:55:02.899Z,34.80
2022-09-01T05:56:03.003Z,11.60
2022-09-01T05:57:23.284Z,7.40
2022-09-01T05:58:04.037Z,6.50
2022-09-01T06:00:03.964Z,14.60
2022-09-01T06:01:02.717Z,11.00
2022-09-01T06:02:02.900Z,2.80
2022-09-01T06:03:02.940Z,10.40
2022-09-01T06:04:02.751Z,2.40
2022-09-01T06:05:02.841Z,31.10
2022-09-01T06:06:02.759Z,6.30
2022-09-01T06:07:07.896Z,11.30
2022-09-01T06:08:03.593Z,3.50
2022-09-01T06:09:02.757Z,6.60
2022-09-01T06:10:02.775Z,2.90
2022-09-01T06:11:02.897Z,3.70
2022-09-01T06:12:02.511Z,5.20
2022-09-01T06:13:02.603Z,6.10
2022-09-01T06:14:02.485Z,4.70
2022-09-01T06:15:02.617Z,3.50
2022-09-01T06:16:02.707Z,4.90
2022-09-01T06:17:02.520Z,3.90
2022-09-01T06:18:02.551Z,2.00
2022-09-01T06:19:02.532Z,4.30
2022-09-01T06:20:02.428Z,1.80
2022-09-01T06:21:02.763Z,1.40
2022-09-01T06:22:02.439Z,2.20
2022-09-01T06:23:02.360Z,2.20
2022-09-01T06:24:02.398Z,1.40
2022-09-01T06:25:03.145Z,0.90
2022-09-01T06:26:02.284Z,2.00
2022-09-01T06:27:02.382Z,1.20
2022-09-01T06:28:02.369Z,1.80
2022-09-01T06:29:02.401Z,1.90
2022-09-01T06:30:02.310Z,1.30
2022-09-01T06:31:02.425Z,1.10
2022-09-01T06:32:02.352Z,1.00
2022-09-01T06:33:02.279Z,1.40
2022-09-01T06:34:02.233Z,1.50
2022-09-01T06:35:02.342Z,1.10
2022-09-01T06:36:02.151Z,1.00
2022-09-01T06:37:02.455Z,0.60
2022-09-01T06:38:02.379Z,1.00
2022-09-01T06:39:02.279Z,1.20
2022-09-01T06:40:02.369Z,1.10
2022-09-01T06:41:02.151Z,0.70
2022-09-01T06:42:05.715Z,1.10
2022-09-01T06:43:02.107Z,0.90
2022-09-01T06:44:02.105Z,0.80
2022-09-01T06:45:02.099Z,1.10
2022-09-01T06:46:02.102Z,0.90
2022-09-01T06:47:02.355Z,0.90
2022-09-01T06:48:02.147Z,1.10
2022-09-01T06:49:02.355Z,0.80
2022-09-01T06:50:02.030Z,0.90
2022-09-01T06:51:20.214Z,0.80
2022-09-01T06:52:03.100Z,0.80
2022-09-01T06:54:02.988Z,0.90
2022-09-01T06:55:07.098Z,1.00
2022-09-01T06:56:03.001Z,0.80
2022-09-01T06:58:03.303Z,0.70
2022-09-01T06:59:02.969Z,0.70
2022-09-01T07:00:01.991Z,0.90
2022-09-01T07:01:01.931Z,0.80
2022-09-01T07:02:02.518Z,1.00
2022-09-01T07:03:02.139Z,0.90
2022-09-01T07:04:02.424Z,1.00
2022-09-01T07:05:01.914Z,0.70
2022-09-01T07:06:02.597Z,1.00
2022-09-01T07:08:04.564Z,0.80
2022-09-01T07:08:06.174Z,0.90
2022-09-01T07:10:18.198Z,1.20
2022-09-01T07:12:37.360Z,0.80
2022-09-01T07:13:06.423Z,0.60
2022-09-01T07:14:17.452Z,0.60
2022-09-01T07:18:02.766Z,0.60
2022-09-01T07:19:03.897Z,0.70
2022-09-01T07:21:04.528Z,0.90
2022-09-01T07:22:09.896Z,0.50
2022-09-01T07:23:04.515Z,1.40
2022-09-01T07:24:10.846Z,1.10
2022-09-01T07:25:17.931Z,1.00
2022-09-01T07:27:11.022Z,0.70
2022-09-01T07:28:02.737Z,0.70
2022-09-01T07:29:02.066Z,0.70
2022-09-01T07:30:01.491Z,0.80
2022-09-01T07:35:02.471Z,0.70
2022-09-01T07:38:47.363Z,0.60
2022-09-01T07:38:48.100Z,0.60
2022-09-01T07:42:30.576Z,0.90
2022-09-01T07:42:56.789Z,0.80
2022-09-01T07:44:01.410Z,0.70
2022-09-01T07:46:36.780Z,0.80
2022-09-01T07:48:03.052Z,0.70
2022-09-01T07:49:02.933Z,0.60
2022-09-01T07:50:24.556Z,0.50
2022-09-01T07:52:02.809Z,0.70
2022-09-01T07:53:01.569Z,0.50
2022-09-01T07:54:01.384Z,0.50
2022-09-01T07:55:03.498Z,0.60
2022-09-01T07:56:03.726Z,0.70
2022-09-01T07:57:02.237Z,0.70
2022-09-01T07:58:01.689Z,0.80
2022-09-01T07:59:01.099Z,0.70
2022-09-01T08:00:01.730Z,0.70
2022-09-01T08:01:01.218Z,0.60
2022-09-01T08:02:01.257Z,0.90
2022-09-01T08:03:01.142Z,0.60
2022-09-01T08:04:01.136Z,0.60
2022-09-01T08:05:01.048Z,0.80
2022-09-01T08:06:01.142Z,0.90
2022-09-01T08:07:01.264Z,0.70
2022-09-01T08:08:01.043Z,0.60
2022-09-01T08:09:01.045Z,0.80
2022-09-01T08:10:01.605Z,0.70
2022-09-01T08:11:07.867Z,0.60
2022-09-01T08:12:03.086Z,0.60
2022-09-01T08:13:00.915Z,0.40
2022-09-01T08:14:00.902Z,0.50
2022-09-01T08:16:16.233Z,0.50
2022-09-01T08:17:16.957Z,0.60
2022-09-01T08:18:02.014Z,0.80
2022-09-01T08:19:01.004Z,0.40
2022-09-01T08:20:00.842Z,0.50
2022-09-01T08:21:00.942Z,0.50
2022-09-01T08:22:00.754Z,0.70
2022-09-01T08:23:01.042Z,0.70
2022-09-01T08:24:00.952Z,0.50
2022-09-01T08:25:00.782Z,0.50
2022-09-01T08:26:00.883Z,0.70
2022-09-01T08:27:00.803Z,0.90
2022-09-01T08:28:00.826Z,0.70
2022-09-01T08:29:00.789Z,0.60
2022-09-01T08:30:00.904Z,0.50
2022-09-01T08:31:00.862Z,0.60
2022-09-01T08:32:01.059Z,0.60
2022-09-01T08:33:10.103Z,0.70
2022-09-01T08:34:01.631Z,0.60
2022-09-01T08:35:00.629Z,0.50
2022-09-01T08:36:00.735Z,0.70
2022-09-01T08:37:00.634Z,0.50
2022-09-01T08:38:00.756Z,0.60
2022-09-01T08:39:00.537Z,0.70
2022-09-01T08:40:00.457Z,0.60
2022-09-01T08:41:00.812Z,0.70
2022-09-01T08:42:00.476Z,0.70
2022-09-01T08:43:00.476Z,0.60
2022-09-01T08:44:03.131Z,0.60
2022-09-01T08:45:00.385Z,0.70
2022-09-01T08:46:00.521Z,0.80
2022-09-01T08:47:00.515Z,0.70
2022-09-01T08:48:50.978Z,0.50
2022-09-01T08:50:01.430Z,0.60
2022-09-01T08:51:00.343Z,0.60
2022-09-01T08:52:01.073Z,0.50
2022-09-01T08:53:09.180Z,0.60
2022-09-01T08:54:01.373Z,0.50
2022-09-01T08:55:00.444Z,0.60
2022-09-01T08:56:00.373Z,0.60
2022-09-01T08:57:00.370Z,0.80
2022-09-01T08:58:00.510Z,1.10
2022-09-01T08:59:00.954Z,0.60
2022-09-01T09:00:01.620Z,0.50
2022-09-01T09:03:02.205Z,0.60
2022-09-01T09:04:00.002Z,0.60
2022-09-01T09:05:00.304Z,0.70
2022-09-01T09:05:59.933Z,0.70
2022-09-01T09:07:00.142Z,0.70
2022-09-01T09:08:07.677Z,0.60
2022-09-01T09:09:01.303Z,0.80
2022-09-01T09:10:00.246Z,0.50
2022-09-01T09:11:00.054Z,0.60
2022-09-01T09:12:00.580Z,0.60
2022-09-01T09:13:00.590Z,0.70
2022-09-01T09:14:00.621Z,0.60
2022-09-01T09:15:01.092Z,0.60
2022-09-01T09:16:07.990Z,0.60
2022-09-01T09:17:00.840Z,0.60
2022-09-01T09:18:00.596Z,0.80
2022-09-01T09:19:00.034Z,0.80
2022-09-01T09:19:59.944Z,0.60
2022-09-01T09:21:00.064Z,0.50
2022-09-01T09:22:00.160Z,0.60
2022-09-01T09:23:01.094Z,0.70
2022-09-01T09:23:59.755Z,0.70
2022-09-01T09:24:59.757Z,0.70
2022-09-01T09:25:59.848Z,0.70
2022-09-01T09:26:59.756Z,0.60
2022-09-01T09:28:01.201Z,0.80
2022-09-01T09:29:00.714Z,0.50
2022-09-01T09:30:04.247Z,0.70
2022-09-01T09:31:00.780Z,0.60
2022-09-01T09:31:59.707Z,0.70
2022-09-01T09:33:30.903Z,0.70
2022-09-01T09:34:00.990Z,0.60
2022-09-01T09:34:59.806Z,0.50
2022-09-01T09:35:59.803Z,0.80
2022-09-01T09:36:59.821Z,0.70
2022-09-01T09:37:59.735Z,0.80
2022-09-01T09:39:00.060Z,0.70
2022-09-01T09:39:59.561Z,0.70
2022-09-01T09:41:18.392Z,0.80
2022-09-01T09:42:00.687Z,0.60
2022-09-01T09:43:01.662Z,0.60
2022-09-01T09:43:59.671Z,0.50
2022-09-01T09:44:59.481Z,0.60
2022-09-01T09:45:59.608Z,0.60
2022-09-01T09:46:59.534Z,0.50
2022-09-01T09:47:59.514Z,0.60
2022-09-01T09:48:59.523Z,0.50
2022-09-01T09:49:59.540Z,0.60
2022-09-01T09:50:59.536Z,0.70
2022-09-01T09:51:59.422Z,0.60
2022-09-01T09:52:59.428Z,0.60
2022-09-01T09:53:59.464Z,0.60
2022-09-01T09:54:59.367Z,0.50
2022-09-01T09:55:59.359Z,0.60
2022-09-01T09:56:59.365Z,0.60
2022-09-01T09:57:59.356Z,0.60
2022-09-01T09:58:59.360Z,0.60
2022-09-01T10:00:01.094Z,0.60
2022-09-01T10:00:59.330Z,0.70
2022-09-01T10:01:59.495Z,0.60
2022-09-01T10:02:59.249Z,0.60
2022-09-01T10:03:59.393Z,0.50
2022-09-01T10:04:59.337Z,0.60
2022-09-01T10:05:59.318Z,1.20
2022-09-01T10:06:59.222Z,0.60
2022-09-01T10:07:59.151Z,0.50
2022-09-01T10:08:59.556Z,0.60
2022-09-01T10:09:59.267Z,0.60
2022-09-01T10:10:59.071Z,0.50
2022-09-01T10:11:59.146Z,0.50
2022-09-01T10:12:59.270Z,0.70
2022-09-01T10:14:00.094Z,0.60
2022-09-01T10:14:59.111Z,0.50
2022-09-01T10:15:59.105Z,0.70
2022-09-01T10:16:59.085Z,0.50
2022-09-01T10:18:20.590Z,0.60
2022-09-01T10:19:00.026Z,0.70
2022-09-01T10:19:59.448Z,0.60
2022-09-01T10:20:58.921Z,0.50
2022-09-01T10:21:58.919Z,0.60
2022-09-01T10:22:59.030Z,0.60
2022-09-01T10:24:17.039Z,0.50
2022-09-01T10:24:59.995Z,0.60
2022-09-01T10:25:58.959Z,0.50
2022-09-01T10:26:58.862Z,0.50
2022-09-01T10:27:59.182Z,0.70
2022-09-01T10:28:58.889Z,0.60
2022-09-01T10:30:18.928Z,0.60
2022-09-01T10:30:59.984Z,0.60
2022-09-01T10:32:27.974Z,0.70
2022-09-01T10:33:07.421Z,0.70
2022-09-01T10:33:59.813Z,0.50
2022-09-01T10:34:59.723Z,0.60
2022-09-01T10:35:58.729Z,0.60
2022-09-01T10:36:59.075Z,0.70
2022-09-01T10:37:59.467Z,0.70
2022-09-01T10:39:04.533Z,0.60
2022-09-01T10:39:59.686Z,0.70
2022-09-01T10:40:58.871Z,0.50
2022-09-01T10:41:59.541Z,0.60
2022-09-01T10:42:58.785Z,0.60
2022-09-01T10:43:59.845Z,0.60
2022-09-01T10:44:58.668Z,0.50
2022-09-01T10:46:05.336Z,0.80
2022-09-01T10:47:02.062Z,0.70
2022-09-01T10:47:58.611Z,0.70
2022-09-01T10:49:02.880Z,0.70
2022-09-01T10:49:58.601Z,0.70
2022-09-01T10:50:58.608Z,1.10
2022-09-01T10:52:03.161Z,0.80
2022-09-01T10:53:00.391Z,0.70
2022-09-01T10:54:02.204Z,0.70
2022-09-01T10:54:58.548Z,0.70
2022-09-01T10:56:01.742Z,0.70
2022-09-01T10:57:03.939Z,0.70
2022-09-01T10:58:07.805Z,0.90
2022-09-01T10:59:59.873Z,0.60
2022-09-01T11:01:18.967Z,0.60
2022-09-01T11:03:00.115Z,0.70
2022-09-01T11:03:58.613Z,0.80
2022-09-01T11:04:58.481Z,0.60
2022-09-01T11:06:11.419Z,0.60
2022-09-01T11:07:14.919Z,0.70
2022-09-01T11:08:01.162Z,0.80
2022-09-01T11:08:58.349Z,0.60
2022-09-01T11:10:08.741Z,0.60
2022-09-01T11:10:59.298Z,0.70
2022-09-01T11:11:58.284Z,0.90
2022-09-01T11:12:58.350Z,0.80
2022-09-01T11:13:58.464Z,0.70
2022-09-01T11:14:58.303Z,0.60
2022-09-01T11:16:00.311Z,0.60
2022-09-01T11:16:58.221Z,0.80
2022-09-01T11:17:58.409Z,0.70
2022-09-01T11:18:58.215Z,0.60
2022-09-01T11:19:58.119Z,0.70
2022-09-01T11:20:58.307Z,0.60
2022-09-01T11:21:58.143Z,0.70
2022-09-01T11:22:58.231Z,0.70
2022-09-01T11:23:58.170Z,0.70
2022-09-01T11:25:02.504Z,0.60
2022-09-01T11:26:59.190Z,0.50
2022-09-01T11:27:58.080Z,0.60
2022-09-01T11:28:58.369Z,0.70
2022-09-01T11:29:58.182Z,0.60
2022-09-01T11:30:58.108Z,0.70
2022-09-01T11:31:58.059Z,0.60
2022-09-01T11:32:58.013Z,0.60
2022-09-01T11:33:58.453Z,0.70
2022-09-01T11:34:57.936Z,0.60
2022-09-01T11:35:57.939Z,0.60
2022-09-01T11:36:58.010Z,0.70
2022-09-01T11:37:58.150Z,0.60
2022-09-01T11:38:58.454Z,0.70
2022-09-01T11:39:57.946Z,0.60
2022-09-01T11:40:57.899Z,0.50
2022-09-01T11:42:00.823Z,0.70
2022-09-01T11:42:58.988Z,0.40
2022-09-01T11:43:57.958Z,0.60
2022-09-01T11:44:57.997Z,0.60
2022-09-01T11:45:58.111Z,0.70
2022-09-01T11:46:57.917Z,0.60
2022-09-01T11:47:57.907Z,0.70
2022-09-01T11:48:57.826Z,0.80
2022-09-01T11:49:57.947Z,0.60
2022-09-01T11:50:57.927Z,0.60
2022-09-01T11:51:57.719Z,0.60
2022-09-01T11:53:02.555Z,0.60
2022-09-01T11:53:58.861Z,0.60
2022-09-01T11:54:57.827Z,0.60
2022-09-01T11:55:57.663Z,0.70
2022-09-01T11:56:57.738Z,0.70
2022-09-01T11:57:57.696Z,0.70
2022-09-01T11:58:57.688Z,0.70
2022-09-01T11:59:58.095Z,0.90
2022-09-01T12:00:57.786Z,0.50
2022-09-01T12:01:57.920Z,0.70
2022-09-01T12:02:57.956Z,0.70
2022-09-01T12:03:57.716Z,0.70
2022-09-01T12:04:57.599Z,0.60
2022-09-01T12:05:57.711Z,0.60
2022-09-01T12:06:57.632Z,1.20
2022-09-01T12:07:57.557Z,0.70
2022-09-01T12:08:57.647Z,0.70
2022-09-01T12:09:57.636Z,0.60
2022-09-01T12:10:57.646Z,0.70
2022-09-01T12:11:57.664Z,0.70
2022-09-01T12:12:57.542Z,0.60
2022-09-01T12:13:57.480Z,0.70
2022-09-01T12:15:05.543Z,0.60
2022-09-01T12:16:17.390Z,0.80
2022-09-01T12:16:58.553Z,0.60
2022-09-01T12:17:57.479Z,0.70
2022-09-01T12:18:57.509Z,0.80
2022-09-01T12:19:57.500Z,0.70
2022-09-01T12:20:57.425Z,0.70
2022-09-01T12:21:57.442Z,0.80
2022-09-01T12:22:57.430Z,1.20
2022-09-01T12:23:57.352Z,1.00
2022-09-01T12:24:57.344Z,2.00
2022-09-01T12:25:57.355Z,1.10
2022-09-01T12:26:57.350Z,0.90
2022-09-01T12:27:57.471Z,0.60
2022-09-01T12:28:57.288Z,1.10
2022-09-01T12:29:57.361Z,0.70
2022-09-01T12:30:57.278Z,1.00
2022-09-01T12:31:57.234Z,0.60
2022-09-01T12:33:58.555Z,0.70
2022-09-01T12:34:57.224Z,0.60
2022-09-01T12:35:59.574Z,0.80
2022-09-01T12:36:57.141Z,0.60
2022-09-01T12:37:57.232Z,0.60
2022-09-01T12:38:57.238Z,0.70
2022-09-01T12:39:57.186Z,0.60
2022-09-01T12:40:57.248Z,0.60
2022-09-01T12:41:57.571Z,0.70
2022-09-01T12:42:57.195Z,0.60
2022-09-01T12:43:57.079Z,0.70
2022-09-01T12:44:57.187Z,0.70
2022-09-01T12:45:57.203Z,0.60
2022-09-01T12:46:57.109Z,0.60
2022-09-01T12:47:57.014Z,0.70
2022-09-01T12:48:57.499Z,0.70
2022-09-01T12:49:57.014Z,0.60
2022-09-01T12:50:57.110Z,0.70
2022-09-01T12:51:57.020Z,0.80
2022-09-01T12:52:57.014Z,0.70
2022-09-01T12:53:58.568Z,0.90
2022-09-01T12:54:56.940Z,0.80
2022-09-01T12:55:57.039Z,0.80
2022-09-01T12:56:56.869Z,1.10
2022-09-01T12:57:56.960Z,0.90
2022-09-01T12:58:56.880Z,0.90
2022-09-01T12:59:57.719Z,0.80
2022-09-01T13:00:57.022Z,0.90
2022-09-01T13:01:57.103Z,0.80
2022-09-01T13:03:56.895Z,0.80
2022-09-01T13:04:57.263Z,0.50
2022-09-01T13:05:56.835Z,0.60
2022-09-01T13:06:57.730Z,0.60
2022-09-01T13:07:56.842Z,0.70
2022-09-01T13:08:56.924Z,0.80
2022-09-01T13:09:56.952Z,0.50
2022-09-01T13:10:57.660Z,0.50
2022-09-01T13:12:12.126Z,0.70
2022-09-01T13:12:57.795Z,0.70
2022-09-01T13:13:57.080Z,0.50
2022-09-01T13:14:56.680Z,0.60
2022-09-01T13:15:56.687Z,0.60
2022-09-01T13:16:57.208Z,0.90
2022-09-01T13:17:58.472Z,0.70
2022-09-01T13:19:12.220Z,0.80
2022-09-01T13:19:57.553Z,0.60
2022-09-01T13:20:56.614Z,0.70
2022-09-01T13:21:56.513Z,0.60
2022-09-01T13:22:56.516Z,0.70
2022-09-01T13:23:56.761Z,0.70
2022-09-01T13:24:57.058Z,0.80
2022-09-01T13:25:56.444Z,0.70
2022-09-01T13:27:57.497Z,0.70
2022-09-01T13:28:56.464Z,0.90
2022-09-01T13:29:56.498Z,0.50
2022-09-01T13:34:20.312Z,0.70
2022-09-01T13:34:57.438Z,0.80
2022-09-01T13:35:56.393Z,0.80
2022-09-01T13:36:56.415Z,0.60
2022-09-01T13:37:56.348Z,0.70
2022-09-01T13:38:56.329Z,0.60
2022-09-01T13:39:56.424Z,0.50
2022-09-01T13:40:57.072Z,0.80
2022-09-01T13:41:56.351Z,0.70
2022-09-01T13:42:56.250Z,0.70
2022-09-01T13:43:56.292Z,0.70
2022-09-01T13:44:57.027Z,0.80
2022-09-01T13:45:56.203Z,0.70
2022-09-01T13:46:59.590Z,0.70
2022-09-01T13:49:41.278Z,0.90